Nampa, Idaho
Current Conditions -  °F | °C
As of 11:15 PM on Friday 28 Nov 2014 (Local Time) from KMAN Reporting Station
Overcast Overcast  
Wind Chill: 54°   Ceiling: 7500
Heat Index: 54°   Visibility: 10mi
Dew Point: 36°   Wind: 7mph
Humidity: 51%   Direction: 210°SSW
Pressure: 29.61"   Gusts: NA
Location:  43.58°N, 116.57°W
Report Text: KMAN 290615Z AUTO 21006KT 10SM OVC075 12/02 A2961 RMK AO1
Loading
Personal Weather Stations






























Interactive Weather Map New forecast layout! Learn more

10-Day Weather Forecast

Advertisements
Track Severe Weather on mobile